sensor_id;sensor_type;location;lat;lon;timestamp;pressure;altitude;pressure_sealevel;temperature;humidity
64238;BME280;57192;41.976;2.828;2022-08-21T00:00:45;59338.97;;;-144.63;100.00
64238;BME280;57192;41.976;2.828;2022-08-21T00:03:11;59338.97;;;-144.63;100.00
64238;BME280;57192;41.976;2.828;2022-08-21T00:05:40;59338.97;;;-144.63;100.00
64238;BME280;57192;41.976;2.828;2022-08-21T00:08:06;59338.97;;;-144.63;100.00
64238;BME280;57192;41.976;2.828;2022-08-21T00:10:32;59338.97;;;-144.63;100.00
64238;BME280;57192;41.976;2.828;2022-08-21T00:12:58;59338.97;;;-144.63;100.00
64238;BME280;57192;41.976;2.828;2022-08-21T00:15:27;59338.97;;;-144.63;100.00
64238;BME280;57192;41.976;2.828;2022-08-21T00:17:54;59338.97;;;-144.63;100.00
64238;BME280;57192;41.976;2.828;2022-08-21T00:20:21;59338.97;;;-144.63;100.00
64238;BME280;57192;41.976;2.828;2022-08-21T00:22:47;59338.97;;;-144.63;100.00
64238;BME280;57192;41.976;2.828;2022-08-21T00:25:14;59338.97;;;-144.63;100.00
64238;BME280;57192;41.976;2.828;2022-08-21T00:27:41;59338.97;;;-144.63;100.00
64238;BME280;57192;41.976;2.828;2022-08-21T00:30:13;59338.97;;;-144.63;100.00
64238;BME280;57192;41.976;2.828;2022-08-21T00:32:40;59338.97;;;-144.63;100.00
64238;BME280;57192;41.976;2.828;2022-08-21T00:35:06;59338.97;;;-144.63;100.00
64238;BME280;57192;41.976;2.828;2022-08-21T00:37:32;59338.97;;;-144.63;100.00
64238;BME280;57192;41.976;2.828;2022-08-21T00:39:57;59338.97;;;-144.63;100.00
64238;BME280;57192;41.976;2.828;2022-08-21T00:42:23;59338.97;;;-144.63;100.00
64238;BME280;57192;41.976;2.828;2022-08-21T00:44:49;59338.97;;;-144.63;100.00
64238;BME280;57192;41.976;2.828;2022-08-21T00:47:16;59338.97;;;-144.63;100.00
64238;BME280;57192;41.976;2.828;2022-08-21T00:49:42;59338.97;;;-144.63;100.00
64238;BME280;57192;41.976;2.828;2022-08-21T00:52:12;59338.97;;;-144.63;100.00
64238;BME280;57192;41.976;2.828;2022-08-21T00:54:41;59338.97;;;-144.63;100.00
64238;BME280;57192;41.976;2.828;2022-08-21T00:57:09;59338.97;;;-144.63;100.00
64238;BME280;57192;41.976;2.828;2022-08-21T00:59:37;59338.97;;;-144.63;100.00
64238;BME280;57192;41.976;2.828;2022-08-21T01:02:05;59338.97;;;-144.63;100.00
64238;BME280;57192;41.976;2.828;2022-08-21T01:04:32;59338.97;;;-144.63;100.00
64238;BME280;57192;41.976;2.828;2022-08-21T01:06:58;59338.97;;;-144.63;100.00
64238;BME280;57192;41.976;2.828;2022-08-21T01:09:23;59338.97;;;-144.63;100.00
64238;BME280;57192;41.976;2.828;2022-08-21T01:11:49;59338.97;;;-144.63;100.00
64238;BME280;57192;41.976;2.828;2022-08-21T01:14:15;59338.97;;;-144.63;100.00
64238;BME280;57192;41.976;2.828;2022-08-21T01:16:44;59338.97;;;-144.63;100.00
64238;BME280;57192;41.976;2.828;2022-08-21T01:19:11;59338.97;;;-144.63;100.00
64238;BME280;57192;41.976;2.828;2022-08-21T01:21:37;59338.97;;;-144.63;100.00
64238;BME280;57192;41.976;2.828;2022-08-21T01:24:02;59338.97;;;-144.63;100.00
64238;BME280;57192;41.976;2.828;2022-08-21T01:26:31;59338.97;;;-144.63;100.00
64238;BME280;57192;41.976;2.828;2022-08-21T01:29:32;59338.97;;;-144.63;100.00
64238;BME280;57192;41.976;2.828;2022-08-21T01:32:05;59338.97;;;-144.63;100.00
64238;BME280;57192;41.976;2.828;2022-08-21T01:34:32;59338.97;;;-144.63;100.00
64238;BME280;57192;41.976;2.828;2022-08-21T01:36:58;59338.97;;;-144.63;100.00
64238;BME280;57192;41.976;2.828;2022-08-21T01:39:23;59338.97;;;-144.63;100.00
64238;BME280;57192;41.976;2.828;2022-08-21T01:41:49;59338.97;;;-144.63;100.00
64238;BME280;57192;41.976;2.828;2022-08-21T01:44:15;59338.97;;;-144.63;100.00
64238;BME280;57192;41.976;2.828;2022-08-21T01:46:40;59338.97;;;-144.63;100.00
64238;BME280;57192;41.976;2.828;2022-08-21T01:49:06;59338.97;;;-144.63;100.00
64238;BME280;57192;41.976;2.828;2022-08-21T01:51:32;59338.97;;;-144.63;100.00
64238;BME280;57192;41.976;2.828;2022-08-21T01:53:58;59338.97;;;-144.63;100.00
64238;BME280;57192;41.976;2.828;2022-08-21T01:56:24;59338.97;;;-144.63;100.00
64238;BME280;57192;41.976;2.828;2022-08-21T01:58:50;59338.97;;;-144.63;100.00
64238;BME280;57192;41.976;2.828;2022-08-21T02:01:16;59338.97;;;-144.63;100.00
64238;BME280;57192;41.976;2.828;2022-08-21T02:03:41;59338.97;;;-144.63;100.00
64238;BME280;57192;41.976;2.828;2022-08-21T02:08:41;59338.97;;;-144.63;100.00
64238;BME280;57192;41.976;2.828;2022-08-21T02:11:07;59338.97;;;-144.63;100.00
64238;BME280;57192;41.976;2.828;2022-08-21T02:13:32;59338.97;;;-144.63;100.00
64238;BME280;57192;41.976;2.828;2022-08-21T02:15:58;59338.97;;;-144.63;100.00
64238;BME280;57192;41.976;2.828;2022-08-21T02:18:23;59338.97;;;-144.63;100.00
64238;BME280;57192;41.976;2.828;2022-08-21T02:20:50;59338.97;;;-144.63;100.00
64238;BME280;57192;41.976;2.828;2022-08-21T02:23:15;59338.97;;;-144.63;100.00
64238;BME280;57192;41.976;2.828;2022-08-21T02:25:41;59338.97;;;-144.63;100.00
64238;BME280;57192;41.976;2.828;2022-08-21T02:28:12;59338.97;;;-144.63;100.00
64238;BME280;57192;41.976;2.828;2022-08-21T02:30:41;59338.97;;;-144.63;100.00
64238;BME280;57192;41.976;2.828;2022-08-21T02:33:08;59338.97;;;-144.63;100.00
64238;BME280;57192;41.976;2.828;2022-08-21T02:35:34;59338.97;;;-144.63;100.00
64238;BME280;57192;41.976;2.828;2022-08-21T02:38:06;59338.97;;;-144.63;100.00
64238;BME280;57192;41.976;2.828;2022-08-21T02:40:35;59338.97;;;-144.63;100.00
64238;BME280;57192;41.976;2.828;2022-08-21T02:43:02;59338.97;;;-144.63;100.00
64238;BME280;57192;41.976;2.828;2022-08-21T02:45:28;59338.97;;;-144.63;100.00
64238;BME280;57192;41.976;2.828;2022-08-21T02:48:15;59338.97;;;-144.63;100.00
64238;BME280;57192;41.976;2.828;2022-08-21T02:50:47;59338.97;;;-144.63;100.00
64238;BME280;57192;41.976;2.828;2022-08-21T02:53:15;59338.97;;;-144.63;100.00
64238;BME280;57192;41.976;2.828;2022-08-21T02:55:43;59338.97;;;-144.63;100.00
64238;BME280;57192;41.976;2.828;2022-08-21T02:58:09;59338.97;;;-144.63;100.00
64238;BME280;57192;41.976;2.828;2022-08-21T03:00:36;59338.97;;;-144.63;100.00
64238;BME280;57192;41.976;2.828;2022-08-21T03:03:02;59338.97;;;-144.63;100.00
64238;BME280;57192;41.976;2.828;2022-08-21T03:05:29;59338.97;;;-144.63;100.00
64238;BME280;57192;41.976;2.828;2022-08-21T03:07:57;59338.97;;;-144.63;100.00
64238;BME280;57192;41.976;2.828;2022-08-21T03:10:24;59338.97;;;-144.63;100.00
64238;BME280;57192;41.976;2.828;2022-08-21T03:12:50;59338.97;;;-144.63;100.00
64238;BME280;57192;41.976;2.828;2022-08-21T03:15:18;59338.97;;;-144.63;100.00
64238;BME280;57192;41.976;2.828;2022-08-21T03:17:45;59338.97;;;-144.63;100.00
64238;BME280;57192;41.976;2.828;2022-08-21T03:20:10;59338.97;;;-144.63;100.00
64238;BME280;57192;41.976;2.828;2022-08-21T03:22:36;59338.97;;;-144.63;100.00
64238;BME280;57192;41.976;2.828;2022-08-21T03:25:03;59338.97;;;-144.63;100.00
64238;BME280;57192;41.976;2.828;2022-08-21T03:27:28;59338.97;;;-144.63;100.00
64238;BME280;57192;41.976;2.828;2022-08-21T03:29:56;59338.97;;;-144.63;100.00
64238;BME280;57192;41.976;2.828;2022-08-21T03:32:22;59338.97;;;-144.63;100.00
64238;BME280;57192;41.976;2.828;2022-08-21T03:34:48;59338.97;;;-144.63;100.00
64238;BME280;57192;41.976;2.828;2022-08-21T03:37:14;59338.97;;;-144.63;100.00
64238;BME280;57192;41.976;2.828;2022-08-21T03:39:41;59338.97;;;-144.63;100.00
64238;BME280;57192;41.976;2.828;2022-08-21T03:42:07;59338.97;;;-144.63;100.00
64238;BME280;57192;41.976;2.828;2022-08-21T03:44:33;59338.97;;;-144.63;100.00
64238;BME280;57192;41.976;2.828;2022-08-21T03:46:59;59338.97;;;-144.63;100.00
64238;BME280;57192;41.976;2.828;2022-08-21T03:49:26;59338.97;;;-144.63;100.00
64238;BME280;57192;41.976;2.828;2022-08-21T03:51:51;59338.97;;;-144.63;100.00
64238;BME280;57192;41.976;2.828;2022-08-21T03:54:17;59338.97;;;-144.63;100.00
64238;BME280;57192;41.976;2.828;2022-08-21T03:56:42;59338.97;;;-144.63;100.00
64238;BME280;57192;41.976;2.828;2022-08-21T03:59:08;59338.97;;;-144.63;100.00
64238;BME280;57192;41.976;2.828;2022-08-21T04:01:34;59338.97;;;-144.63;100.00
64238;BME280;57192;41.976;2.828;2022-08-21T04:03:59;59338.97;;;-144.63;100.00
64238;BME280;57192;41.976;2.828;2022-08-21T04:06:25;59338.97;;;-144.63;100.00
64238;BME280;57192;41.976;2.828;2022-08-21T04:08:52;59338.97;;;-144.63;100.00
64238;BME280;57192;41.976;2.828;2022-08-21T04:11:18;59338.97;;;-144.63;100.00
64238;BME280;57192;41.976;2.828;2022-08-21T04:13:44;59338.97;;;-144.63;100.00
64238;BME280;57192;41.976;2.828;2022-08-21T04:16:09;59338.97;;;-144.63;100.00
64238;BME280;57192;41.976;2.828;2022-08-21T04:18:35;59338.97;;;-144.63;100.00
64238;BME280;57192;41.976;2.828;2022-08-21T04:21:01;59338.97;;;-144.63;100.00
64238;BME280;57192;41.976;2.828;2022-08-21T04:23:27;59338.97;;;-144.63;100.00
64238;BME280;57192;41.976;2.828;2022-08-21T04:25:54;59338.97;;;-144.63;100.00
64238;BME280;57192;41.976;2.828;2022-08-21T04:28:21;59338.97;;;-144.63;100.00
64238;BME280;57192;41.976;2.828;2022-08-21T04:30:47;59338.97;;;-144.63;100.00
64238;BME280;57192;41.976;2.828;2022-08-21T04:33:12;59338.97;;;-144.63;100.00
64238;BME280;57192;41.976;2.828;2022-08-21T04:35:38;59338.97;;;-144.63;100.00
64238;BME280;57192;41.976;2.828;2022-08-21T04:38:04;59338.97;;;-144.63;100.00
64238;BME280;57192;41.976;2.828;2022-08-21T04:40:29;59338.97;;;-144.63;100.00
64238;BME280;57192;41.976;2.828;2022-08-21T04:43:02;59338.97;;;-144.63;100.00
64238;BME280;57192;41.976;2.828;2022-08-21T04:45:31;59338.97;;;-144.63;100.00
64238;BME280;57192;41.976;2.828;2022-08-21T04:48:00;59338.97;;;-144.63;100.00
64238;BME280;57192;41.976;2.828;2022-08-21T04:50:38;59338.97;;;-144.63;100.00
64238;BME280;57192;41.976;2.828;2022-08-21T04:53:57;59338.97;;;-144.63;100.00
64238;BME280;57192;41.976;2.828;2022-08-21T04:56:33;59338.97;;;-144.63;100.00
64238;BME280;57192;41.976;2.828;2022-08-21T04:59:04;59338.97;;;-144.63;100.00
64238;BME280;57192;41.976;2.828;2022-08-21T05:01:34;59338.97;;;-144.63;100.00
64238;BME280;57192;41.976;2.828;2022-08-21T05:04:02;59338.97;;;-144.63;100.00
64238;BME280;57192;41.976;2.828;2022-08-21T05:06:32;59338.97;;;-144.63;100.00
64238;BME280;57192;41.976;2.828;2022-08-21T05:08:59;59338.97;;;-144.63;100.00
64238;BME280;57192;41.976;2.828;2022-08-21T05:11:26;59338.97;;;-144.63;100.00
64238;BME280;57192;41.976;2.828;2022-08-21T05:13:51;59338.97;;;-144.63;100.00
64238;BME280;57192;41.976;2.828;2022-08-21T05:16:17;59338.97;;;-144.63;100.00
64238;BME280;57192;41.976;2.828;2022-08-21T05:18:43;59338.97;;;-144.63;100.00
64238;BME280;57192;41.976;2.828;2022-08-21T05:21:08;59338.97;;;-144.63;100.00
64238;BME280;57192;41.976;2.828;2022-08-21T05:23:35;59338.97;;;-144.63;100.00
64238;BME280;57192;41.976;2.828;2022-08-21T05:26:01;59338.97;;;-144.63;100.00
64238;BME280;57192;41.976;2.828;2022-08-21T05:28:27;59338.97;;;-144.63;100.00
64238;BME280;57192;41.976;2.828;2022-08-21T05:30:53;59338.97;;;-144.63;100.00
64238;BME280;57192;41.976;2.828;2022-08-21T05:33:18;59338.97;;;-144.63;100.00
64238;BME280;57192;41.976;2.828;2022-08-21T05:35:44;59338.97;;;-144.63;100.00
64238;BME280;57192;41.976;2.828;2022-08-21T05:38:10;59338.97;;;-144.63;100.00
64238;BME280;57192;41.976;2.828;2022-08-21T05:40:35;59338.97;;;-144.63;100.00
64238;BME280;57192;41.976;2.828;2022-08-21T05:43:01;59338.97;;;-144.63;100.00
64238;BME280;57192;41.976;2.828;2022-08-21T05:45:29;59338.97;;;-144.63;100.00
64238;BME280;57192;41.976;2.828;2022-08-21T05:47:55;59338.97;;;-144.63;100.00
64238;BME280;57192;41.976;2.828;2022-08-21T05:50:21;59338.97;;;-144.63;100.00
64238;BME280;57192;41.976;2.828;2022-08-21T05:52:46;59338.97;;;-144.63;100.00
64238;BME280;57192;41.976;2.828;2022-08-21T05:55:12;59338.97;;;-144.63;100.00
64238;BME280;57192;41.976;2.828;2022-08-21T05:57:38;59338.97;;;-144.63;100.00
64238;BME280;57192;41.976;2.828;2022-08-21T06:00:07;59338.97;;;-144.63;100.00
64238;BME280;57192;41.976;2.828;2022-08-21T06:02:34;59338.97;;;-144.63;100.00
64238;BME280;57192;41.976;2.828;2022-08-21T06:05:00;59338.97;;;-144.63;100.00
64238;BME280;57192;41.976;2.828;2022-08-21T06:07:26;59338.97;;;-144.63;100.00
64238;BME280;57192;41.976;2.828;2022-08-21T06:09:51;59338.97;;;-144.63;100.00
64238;BME280;57192;41.976;2.828;2022-08-21T06:12:17;59338.97;;;-144.63;100.00
64238;BME280;57192;41.976;2.828;2022-08-21T06:14:42;59338.97;;;-144.63;100.00
64238;BME280;57192;41.976;2.828;2022-08-21T06:17:10;59338.97;;;-144.63;100.00
64238;BME280;57192;41.976;2.828;2022-08-21T06:19:37;59338.97;;;-144.63;100.00
64238;BME280;57192;41.976;2.828;2022-08-21T06:22:03;59338.97;;;-144.63;100.00
64238;BME280;57192;41.976;2.828;2022-08-21T06:24:29;59338.97;;;-144.63;100.00
64238;BME280;57192;41.976;2.828;2022-08-21T06:26:55;59338.97;;;-144.63;100.00
64238;BME280;57192;41.976;2.828;2022-08-21T06:29:21;59338.97;;;-144.63;100.00
64238;BME280;57192;41.976;2.828;2022-08-21T06:31:48;100750.25;;;27.73;59.24
64238;BME280;57192;41.976;2.828;2022-08-21T06:34:15;100741.16;;;30.36;50.89
64238;BME280;57192;41.976;2.828;2022-08-21T06:36:40;100747.09;;;32.61;44.07
64238;BME280;57192;41.976;2.828;2022-08-21T06:39:06;100746.00;;;34.42;39.56
64238;BME280;57192;41.976;2.828;2022-08-21T06:41:31;100749.28;;;35.98;35.89
64238;BME280;57192;41.976;2.828;2022-08-21T06:43:57;100748.91;;;37.35;32.72
64238;BME280;57192;41.976;2.828;2022-08-21T06:46:28;100743.31;;;38.59;29.91
64238;BME280;57192;41.976;2.828;2022-08-21T06:48:54;100738.34;;;39.46;28.19
64238;BME280;57192;41.976;2.828;2022-08-21T06:51:21;100739.81;;;40.22;26.95
64238;BME280;57192;41.976;2.828;2022-08-21T06:53:47;100737.56;;;41.06;25.72
64238;BME280;57192;41.976;2.828;2022-08-21T06:56:13;100737.81;;;42.01;24.27
64238;BME280;57192;41.976;2.828;2022-08-21T06:58:38;100730.38;;;42.80;22.96
64238;BME280;57192;41.976;2.828;2022-08-21T07:01:04;100724.38;;;43.60;21.68
64238;BME280;57192;41.976;2.828;2022-08-21T07:03:33;100726.41;;;44.44;20.72
64238;BME280;57192;41.976;2.828;2022-08-21T07:05:59;100716.31;;;45.37;19.46
64238;BME280;57192;41.976;2.828;2022-08-21T07:08:26;100719.00;;;46.11;19.29
64238;BME280;57192;41.976;2.828;2022-08-21T07:10:53;100724.03;;;46.81;18.17
64238;BME280;57192;41.976;2.828;2022-08-21T07:13:20;100728.56;;;47.52;17.04
64238;BME280;57192;41.976;2.828;2022-08-21T07:15:45;100723.00;;;47.80;16.75
64238;BME280;57192;41.976;2.828;2022-08-21T07:18:11;100723.47;;;47.68;15.95
64238;BME280;57192;41.976;2.828;2022-08-21T07:20:39;100718.75;;;47.82;16.12
64238;BME280;57192;41.976;2.828;2022-08-21T07:23:07;100720.72;;;47.82;15.86
64238;BME280;57192;41.976;2.828;2022-08-21T07:25:34;100722.31;;;48.02;15.52
64238;BME280;57192;41.976;2.828;2022-08-21T07:28:00;100719.72;;;48.47;15.43
64238;BME280;57192;41.976;2.828;2022-08-21T07:30:26;100719.25;;;48.81;14.91
64238;BME280;57192;41.976;2.828;2022-08-21T07:32:52;100720.19;;;49.13;14.88
64238;BME280;57192;41.976;2.828;2022-08-21T07:35:19;100720.22;;;49.58;13.88
64238;BME280;57192;41.976;2.828;2022-08-21T07:37:45;100712.81;;;49.79;14.00
64238;BME280;57192;41.976;2.828;2022-08-21T07:40:11;100705.84;;;50.08;13.17
64238;BME280;57192;41.976;2.828;2022-08-21T07:42:41;100700.63;;;50.50;13.05
64238;BME280;57192;41.976;2.828;2022-08-21T07:45:08;100700.34;;;50.86;12.70
64238;BME280;57192;41.976;2.828;2022-08-21T07:47:34;100702.03;;;51.22;12.45
64238;BME280;57192;41.976;2.828;2022-08-21T07:49:59;100698.09;;;51.70;11.75
64238;BME280;57192;41.976;2.828;2022-08-21T07:52:24;100698.09;;;52.08;11.24
64238;BME280;57192;41.976;2.828;2022-08-21T07:54:50;100687.00;;;52.24;11.48
64238;BME280;57192;41.976;2.828;2022-08-21T07:57:15;100696.84;;;52.56;11.56
64238;BME280;57192;41.976;2.828;2022-08-21T07:59:41;100696.09;;;52.68;10.89
64238;BME280;57192;41.976;2.828;2022-08-21T08:02:06;100689.66;;;52.58;11.17
64238;BME280;57192;41.976;2.828;2022-08-21T08:04:32;100688.53;;;52.93;10.38
64238;BME280;57192;41.976;2.828;2022-08-21T08:06:57;100687.59;;;53.22;10.78
64238;BME280;57192;41.976;2.828;2022-08-21T08:09:23;100691.22;;;53.10;10.70
64238;BME280;57192;41.976;2.828;2022-08-21T08:11:48;100678.50;;;52.95;10.63
64238;BME280;57192;41.976;2.828;2022-08-21T08:14:14;100678.09;;;53.05;10.57
64238;BME280;57192;41.976;2.828;2022-08-21T08:16:40;100668.50;;;52.89;10.31
64238;BME280;57192;41.976;2.828;2022-08-21T08:19:06;100677.97;;;53.02;10.36
64238;BME280;57192;41.976;2.828;2022-08-21T08:21:33;100671.22;;;53.40;10.21
64238;BME280;57192;41.976;2.828;2022-08-21T08:23:59;100661.69;;;53.69;10.67
64238;BME280;57192;41.976;2.828;2022-08-21T08:26:25;100660.03;;;53.80;10.26
64238;BME280;57192;41.976;2.828;2022-08-21T08:28:51;100657.91;;;53.77;9.26
64238;BME280;57192;41.976;2.828;2022-08-21T08:31:16;100652.72;;;53.91;9.54
64238;BME280;57192;41.976;2.828;2022-08-21T08:33:42;100652.22;;;54.26;8.98
64238;BME280;57192;41.976;2.828;2022-08-21T08:36:14;100647.91;;;54.44;9.16
64238;BME280;57192;41.976;2.828;2022-08-21T08:38:40;100640.38;;;53.87;9.51
64238;BME280;57192;41.976;2.828;2022-08-21T08:41:12;100630.06;;;53.58;9.64
64238;BME280;57192;41.976;2.828;2022-08-21T08:43:40;100639.38;;;53.34;9.41
64238;BME280;57192;41.976;2.828;2022-08-21T08:46:13;100632.63;;;53.26;9.86
64238;BME280;57192;41.976;2.828;2022-08-21T08:51:30;100623.81;;;52.86;9.72
64238;BME280;57192;41.976;2.828;2022-08-21T08:54:04;100624.69;;;52.15;10.50
64238;BME280;57192;41.976;2.828;2022-08-21T08:56:34;100624.25;;;51.28;10.67
64238;BME280;57192;41.976;2.828;2022-08-21T08:59:07;100615.94;;;49.79;11.81
64238;BME280;57192;41.976;2.828;2022-08-21T09:01:33;100626.72;;;47.92;13.72
64238;BME280;57192;41.976;2.828;2022-08-21T09:03:59;100620.97;;;46.33;14.70
64238;BME280;57192;41.976;2.828;2022-08-21T09:06:44;100613.69;;;44.58;16.16
64238;BME280;57192;41.976;2.828;2022-08-21T09:14:50;59338.97;;;-144.63;100.00
64238;BME280;57192;41.976;2.828;2022-08-21T09:25:35;59338.97;;;-144.63;100.00
64238;BME280;57192;41.976;2.828;2022-08-21T09:28:07;59338.97;;;-144.63;100.00
64238;BME280;57192;41.976;2.828;2022-08-21T09:30:33;59338.97;;;-144.63;100.00
64238;BME280;57192;41.976;2.828;2022-08-21T09:32:59;59338.97;;;-144.63;100.00
64238;BME280;57192;41.976;2.828;2022-08-21T09:35:25;59338.97;;;-144.63;100.00
64238;BME280;57192;41.976;2.828;2022-08-21T09:40:42;59338.97;;;-144.63;100.00
64238;BME280;57192;41.976;2.828;2022-08-21T09:43:17;59338.97;;;-144.63;100.00
64238;BME280;57192;41.976;2.828;2022-08-21T09:45:44;59338.97;;;-144.63;100.00
64238;BME280;57192;41.976;2.828;2022-08-21T09:48:24;59338.97;;;-144.63;100.00
64238;BME280;57192;41.976;2.828;2022-08-21T09:50:51;59338.97;;;-144.63;100.00
64238;BME280;57192;41.976;2.828;2022-08-21T09:53:28;59338.97;;;-144.63;100.00
64238;BME280;57192;41.976;2.828;2022-08-21T09:56:04;59338.97;;;-144.63;100.00
64238;BME280;57192;41.976;2.828;2022-08-21T09:58:50;59338.97;;;-144.63;100.00
64238;BME280;57192;41.976;2.828;2022-08-21T10:01:21;59338.97;;;-144.63;100.00
64238;BME280;57192;41.976;2.828;2022-08-21T10:03:48;59338.97;;;-144.63;100.00
64238;BME280;57192;41.976;2.828;2022-08-21T10:06:26;59338.97;;;-144.63;100.00
64238;BME280;57192;41.976;2.828;2022-08-21T10:09:12;59338.97;;;-144.63;100.00
64238;BME280;57192;41.976;2.828;2022-08-21T10:11:40;59338.97;;;-144.63;100.00
64238;BME280;57192;41.976;2.828;2022-08-21T10:24:58;59338.97;;;-144.63;100.00
64238;BME280;57192;41.976;2.828;2022-08-21T10:30:11;59338.97;;;-144.63;100.00
64238;BME280;57192;41.976;2.828;2022-08-21T10:32:43;59338.97;;;-144.63;100.00
64238;BME280;57192;41.976;2.828;2022-08-21T10:35:20;59338.97;;;-144.63;100.00
64238;BME280;57192;41.976;2.828;2022-08-21T10:46:21;59338.97;;;-144.63;100.00
64238;BME280;57192;41.976;2.828;2022-08-21T10:49:03;59338.97;;;-144.63;100.00
64238;BME280;57192;41.976;2.828;2022-08-21T10:51:40;59338.97;;;-144.63;100.00
64238;BME280;57192;41.976;2.828;2022-08-21T10:56:33;59338.97;;;-144.63;100.00
64238;BME280;57192;41.976;2.828;2022-08-21T11:04:28;59338.97;;;-144.63;100.00
64238;BME280;57192;41.976;2.828;2022-08-21T11:07:19;59338.97;;;-144.63;100.00
64238;BME280;57192;41.976;2.828;2022-08-21T11:09:47;59338.97;;;-144.63;100.00
64238;BME280;57192;41.976;2.828;2022-08-21T11:12:31;59338.97;;;-144.63;100.00
64238;BME280;57192;41.976;2.828;2022-08-21T11:15:07;59338.97;;;-144.63;100.00
64238;BME280;57192;41.976;2.828;2022-08-21T11:17:47;59338.97;;;-144.63;100.00
64238;BME280;57192;41.976;2.828;2022-08-21T11:20:46;59338.97;;;-144.63;100.00
64238;BME280;57192;41.976;2.828;2022-08-21T11:23:25;59338.97;;;-144.63;100.00
64238;BME280;57192;41.976;2.828;2022-08-21T11:26:05;59338.97;;;-144.63;100.00
64238;BME280;57192;41.976;2.828;2022-08-21T11:28:38;59338.97;;;-144.63;100.00
64238;BME280;57192;41.976;2.828;2022-08-21T11:31:30;59338.97;;;-144.63;100.00
64238;BME280;57192;41.976;2.828;2022-08-21T11:37:17;59338.97;;;-144.63;100.00
64238;BME280;57192;41.976;2.828;2022-08-21T11:40:05;59338.97;;;-144.63;100.00
64238;BME280;57192;41.976;2.828;2022-08-21T11:45:54;59338.97;;;-144.63;100.00
64238;BME280;57192;41.976;2.828;2022-08-21T11:48:41;59338.97;;;-144.63;100.00
64238;BME280;57192;41.976;2.828;2022-08-21T11:51:26;59338.97;;;-144.63;100.00
64238;BME280;57192;41.976;2.828;2022-08-21T11:54:20;59338.97;;;-144.63;100.00
64238;BME280;57192;41.976;2.828;2022-08-21T11:56:55;59338.97;;;-144.63;100.00
64238;BME280;57192;41.976;2.828;2022-08-21T11:59:25;59338.97;;;-144.63;100.00
64238;BME280;57192;41.976;2.828;2022-08-21T12:01:52;59338.97;;;-144.63;100.00
64238;BME280;57192;41.976;2.828;2022-08-21T12:04:29;59338.97;;;-144.63;100.00
64238;BME280;57192;41.976;2.828;2022-08-21T12:06:56;59338.97;;;-144.63;100.00
64238;BME280;57192;41.976;2.828;2022-08-21T12:12:12;59338.97;;;-144.63;100.00
64238;BME280;57192;41.976;2.828;2022-08-21T12:14:44;59338.97;;;-144.63;100.00
64238;BME280;57192;41.976;2.828;2022-08-21T12:17:19;59338.97;;;-144.63;100.00
64238;BME280;57192;41.976;2.828;2022-08-21T12:19:44;59338.97;;;-144.63;100.00
64238;BME280;57192;41.976;2.828;2022-08-21T12:22:11;59338.97;;;-144.63;100.00
64238;BME280;57192;41.976;2.828;2022-08-21T12:24:48;59338.97;;;-144.63;100.00
64238;BME280;57192;41.976;2.828;2022-08-21T12:29:55;59338.97;;;-144.63;100.00
64238;BME280;57192;41.976;2.828;2022-08-21T12:32:28;59338.97;;;-144.63;100.00
64238;BME280;57192;41.976;2.828;2022-08-21T12:35:12;59338.97;;;-144.63;100.00
64238;BME280;57192;41.976;2.828;2022-08-21T12:37:41;59338.97;;;-144.63;100.00
64238;BME280;57192;41.976;2.828;2022-08-21T12:40:22;59338.97;;;-144.63;100.00
64238;BME280;57192;41.976;2.828;2022-08-21T12:42:51;59338.97;;;-144.63;100.00
64238;BME280;57192;41.976;2.828;2022-08-21T12:45:47;59338.97;;;-144.63;100.00
64238;BME280;57192;41.976;2.828;2022-08-21T12:48:27;59338.97;;;-144.63;100.00
64238;BME280;57192;41.976;2.828;2022-08-21T12:51:12;59338.97;;;-144.63;100.00
64238;BME280;57192;41.976;2.828;2022-08-21T12:56:15;59338.97;;;-144.63;100.00
64238;BME280;57192;41.976;2.828;2022-08-21T12:58:49;59338.97;;;-144.63;100.00
64238;BME280;57192;41.976;2.828;2022-08-21T13:01:23;59338.97;;;-144.63;100.00
64238;BME280;57192;41.976;2.828;2022-08-21T13:03:51;59338.97;;;-144.63;100.00
64238;BME280;57192;41.976;2.828;2022-08-21T13:06:20;59338.97;;;-144.63;100.00
64238;BME280;57192;41.976;2.828;2022-08-21T13:08:48;59338.97;;;-144.63;100.00
64238;BME280;57192;41.976;2.828;2022-08-21T13:11:20;59338.97;;;-144.63;100.00
64238;BME280;57192;41.976;2.828;2022-08-21T13:13:51;59338.97;;;-144.63;100.00
64238;BME280;57192;41.976;2.828;2022-08-21T13:16:22;59338.97;;;-144.63;100.00
64238;BME280;57192;41.976;2.828;2022-08-21T13:18:56;59338.97;;;-144.63;100.00
64238;BME280;57192;41.976;2.828;2022-08-21T13:21:28;59338.97;;;-144.63;100.00
64238;BME280;57192;41.976;2.828;2022-08-21T13:23:54;59338.97;;;-144.63;100.00
64238;BME280;57192;41.976;2.828;2022-08-21T13:26:20;59338.97;;;-144.63;100.00
64238;BME280;57192;41.976;2.828;2022-08-21T13:28:46;59338.97;;;-144.63;100.00
64238;BME280;57192;41.976;2.828;2022-08-21T13:31:17;59338.97;;;-144.63;100.00
64238;BME280;57192;41.976;2.828;2022-08-21T13:33:43;59338.97;;;-144.63;100.00
64238;BME280;57192;41.976;2.828;2022-08-21T13:38:36;59338.97;;;-144.63;100.00
64238;BME280;57192;41.976;2.828;2022-08-21T13:43:36;59338.97;;;-144.63;100.00
64238;BME280;57192;41.976;2.828;2022-08-21T13:46:07;59338.97;;;-144.63;100.00
64238;BME280;57192;41.976;2.828;2022-08-21T13:48:35;59338.97;;;-144.63;100.00
64238;BME280;57192;41.976;2.828;2022-08-21T13:51:02;59338.97;;;-144.63;100.00
64238;BME280;57192;41.976;2.828;2022-08-21T13:53:49;59338.97;;;-144.63;100.00
64238;BME280;57192;41.976;2.828;2022-08-21T13:56:31;59338.97;;;-144.63;100.00